Time;durP1;ratioP1;P1;durP2;ratioP2;P2;SDS_P1;SDS_P2;PMS_P1;PMS_P2;Temp;Humidity;BMP_temperature;BMP_pressure;BME280_temperature;BME280_humidity;BME280_pressure;Samples;Min_cycle;Max_cycle;Signal;HPM_P1;HPM_P2
2021/07/12 00:00:48;;;;;;;51.33;27.55;;;17.40;99.90;;;;;;12440032;28;20103;-40
2021/07/12 00:06:49;;;;;;;51.85;27.23;;;17.30;99.90;;;;;;12440664;28;20042;-40
2021/07/12 00:12:52;;;;;;;44.85;27.85;;;17.20;99.90;;;;;;12440382;28;20176;-41
2021/07/12 00:18:54;;;;;;;55.45;29.00;;;17.00;99.90;;;;;;12453001;28;20080;-40
2021/07/12 00:24:58;;;;;;;58.00;24.73;;;17.20;99.90;;;;;;12441769;28;20680;-40
2021/07/12 00:31:00;;;;;;;55.30;25.45;;;17.30;99.90;;;;;;12447484;28;20568;-41
2021/07/12 00:37:02;;;;;;;49.45;26.52;;;17.30;99.90;;;;;;12448691;28;20049;-41
2021/07/12 00:43:05;;;;;;;48.63;26.77;;;17.10;99.90;;;;;;12448910;28;20092;-44
2021/07/12 00:49:07;;;;;;;54.03;28.40;;;16.90;99.90;;;;;;12451792;28;20088;-42
2021/07/12 00:55:15;;;;;;;63.90;28.05;;;17.00;99.90;;;;;;12444165;28;20523;-40
2021/07/12 01:01:17;;;;;;;58.25;32.28;;;16.90;99.90;;;;;;12446698;28;20045;-43
2021/07/12 01:07:19;;;;;;;56.00;32.28;;;16.70;99.90;;;;;;12448978;28;20496;-41
2021/07/12 01:13:35;;;;;;;62.35;29.80;;;16.80;99.90;;;;;;12449334;28;20548;-41
2021/07/12 01:20:08;;;;;;;57.63;31.77;;;16.80;99.90;;;;;;12444295;28;20110;-41
2021/07/12 01:26:25;;;;;;;50.03;27.45;;;16.80;99.90;;;;;;12444754;28;20050;-43
2021/07/12 01:32:38;;;;;;;45.90;27.00;;;16.70;99.90;;;;;;12447779;28;20517;-40
2021/07/12 01:38:56;;;;;;;42.80;26.30;;;16.70;99.90;;;;;;12447513;28;20050;-40
2021/07/12 01:45:14;;;;;;;44.67;27.67;;;16.60;99.90;;;;;;12446893;28;20085;-44
2021/07/12 01:51:21;;;;;;;49.05;28.08;;;16.80;99.90;;;;;;12447050;28;20049;-40
2021/07/12 01:57:32;;;;;;;41.70;24.48;;;16.60;99.90;;;;;;12443370;28;20045;-41
2021/07/12 02:03:35;;;;;;;55.30;24.88;;;16.90;99.90;;;;;;12450943;28;20046;-40
2021/07/12 02:09:38;;;;;;;53.13;25.98;;;16.80;99.90;;;;;;12443426;28;20578;-40
2021/07/12 02:15:43;;;;;;;39.90;24.85;;;16.80;99.90;;;;;;12445639;28;20075;-44
2021/07/12 02:21:48;;;;;;;50.38;25.80;;;16.70;99.90;;;;;;12446876;28;20053;-41
2021/07/12 02:27:51;;;;;;;46.15;23.08;;;16.70;99.90;;;;;;12446425;28;20391;-40
2021/07/12 02:33:53;;;;;;;49.30;27.02;;;16.80;99.90;;;;;;12443136;28;20099;-45
2021/07/12 02:39:55;;;;;;;53.28;25.88;;;16.60;99.90;;;;;;12439317;28;20132;-40
2021/07/12 02:45:58;;;;;;;55.65;27.35;;;16.60;99.90;;;;;;12443445;28;20053;-41
2021/07/12 02:52:05;;;;;;;41.70;26.90;;;16.30;99.90;;;;;;12432438;28;20056;-41
2021/07/12 02:58:07;;;;;;;43.47;26.48;;;16.40;99.90;;;;;;12442502;28;20510;-41
2021/07/12 03:04:09;;;;;;;44.40;26.02;;;16.40;99.90;;;;;;12443718;28;20053;-42
2021/07/12 03:10:19;;;;;;;69.38;27.00;;;16.40;99.90;;;;;;12443675;28;20119;-41
2021/07/12 03:16:23;;;;;;;55.03;25.73;;;16.40;99.90;;;;;;12445307;28;20176;-42
2021/07/12 03:22:26;;;;;;;53.10;28.50;;;16.40;99.90;;;;;;12443587;28;20050;-42
2021/07/12 03:28:28;;;;;;;59.97;27.33;;;16.40;99.90;;;;;;12442046;28;20057;-40
2021/07/12 03:34:31;;;;;;;53.38;28.63;;;16.20;99.90;;;;;;12440499;28;20050;-40
2021/07/12 03:40:33;;;;;;;75.03;27.88;;;16.30;99.90;;;;;;12439198;28;20774;-43
2021/07/12 03:46:40;;;;;;;131.27;24.92;;;16.20;99.90;;;;;;12443155;28;20111;-42
2021/07/12 03:52:50;;;;;;;109.32;24.77;;;16.30;99.90;;;;;;12451632;28;20092;-41
2021/07/12 03:58:52;;;;;;;89.40;25.52;;;16.20;99.90;;;;;;12452977;28;20053;-40
2021/07/12 04:04:54;;;;;;;125.22;24.92;;;16.20;99.90;;;;;;12447373;28;20835;-40
2021/07/12 04:10:56;;;;;;;73.43;22.77;;;16.30;99.90;;;;;;12449315;28;20096;-41
2021/07/12 04:16:57;;;;;;;189.73;23.63;;;16.30;99.90;;;;;;12455432;28;20103;-41
2021/07/12 04:23:00;;;;;;;125.65;21.75;;;16.30;99.90;;;;;;12449686;28;20409;-40
2021/07/12 04:29:02;;;;;;;117.15;22.70;;;16.40;99.90;;;;;;12440752;28;20057;-46
2021/07/12 04:35:05;;;;;;;88.82;22.33;;;16.20;99.90;;;;;;12444616;28;20148;-42
2021/07/12 04:41:07;;;;;;;134.77;23.25;;;16.30;99.90;;;;;;12448724;28;20054;-42
2021/07/12 04:47:09;;;;;;;45.03;21.13;;;16.30;99.90;;;;;;12453048;28;20143;-43
2021/07/12 04:53:11;;;;;;;38.60;21.67;;;16.30;99.90;;;;;;12446161;28;20037;-40
2021/07/12 04:59:14;;;;;;;73.72;22.08;;;16.40;99.90;;;;;;12448249;28;20057;-41
2021/07/12 05:05:16;;;;;;;39.75;24.85;;;16.50;99.90;;;;;;12446463;28;20045;-42
2021/07/12 05:11:19;;;;;;;43.75;24.00;;;16.60;99.90;;;;;;12448412;28;20096;-40
2021/07/12 05:17:20;;;;;;;34.38;22.48;;;16.70;99.90;;;;;;12446014;28;20046;-41
2021/07/12 05:23:22;;;;;;;45.30;23.92;;;16.70;99.90;;;;;;12440938;28;20476;-42
2021/07/12 05:29:24;;;;;;;63.72;25.17;;;16.80;99.90;;;;;;12448811;28;20049;-42
2021/07/12 05:35:26;;;;;;;71.18;24.85;;;16.80;99.90;;;;;;12445745;28;20046;-41
2021/07/12 05:41:27;;;;;;;203.52;29.30;;;16.80;99.90;;;;;;12440133;28;20053;-40
2021/07/12 05:47:30;;;;;;;110.15;25.60;;;17.00;99.90;;;;;;12441839;28;20888;-40
2021/07/12 05:53:32;;;;;;;81.45;26.80;;;17.20;99.90;;;;;;12438455;28;20057;-41
2021/07/12 05:59:36;;;;;;;41.47;26.27;;;17.30;99.90;;;;;;12448440;28;20417;-40
2021/07/12 06:05:39;;;;;;;53.47;28.97;;;17.30;99.90;;;;;;12439157;28;20748;-40
2021/07/12 06:11:41;;;;;;;50.58;28.33;;;17.30;99.90;;;;;;12444700;28;20041;-43
2021/07/12 06:17:45;;;;;;;44.33;29.25;;;17.40;99.90;;;;;;12443495;28;20042;-40
2021/07/12 06:23:47;;;;;;;46.45;26.85;;;17.50;99.90;;;;;;12441944;28;20046;-41
2021/07/12 06:29:48;;;;;;;47.40;29.90;;;17.60;99.90;;;;;;12442180;28;20061;-42
2021/07/12 06:35:50;;;;;;;46.22;29.48;;;17.70;99.90;;;;;;12441286;28;20049;-41
2021/07/12 06:41:52;;;;;;;45.08;29.20;;;17.80;99.90;;;;;;12442273;28;20140;-41
2021/07/12 06:47:55;;;;;;;49.20;30.30;;;17.90;99.90;;;;;;12438482;28;20085;-41
2021/07/12 06:53:57;;;;;;;44.92;30.55;;;18.00;99.90;;;;;;12437832;28;20072;-41
2021/07/12 06:59:59;;;;;;;51.95;32.45;;;18.00;99.90;;;;;;12448074;28;20123;-42
2021/07/12 07:06:00;;;;;;;47.85;31.80;;;17.90;99.90;;;;;;12443133;28;20042;-40
2021/07/12 07:12:02;;;;;;;52.42;32.90;;;18.00;99.90;;;;;;12438269;28;20091;-40
2021/07/12 07:18:04;;;;;;;42.53;29.45;;;17.90;99.90;;;;;;12434938;28;20188;-45
2021/07/12 07:24:06;;;;;;;50.58;33.75;;;18.10;99.90;;;;;;12453152;28;20103;-41
2021/07/12 07:30:09;;;;;;;56.42;33.00;;;18.20;99.90;;;;;;12455263;28;20049;-40
2021/07/12 07:36:10;;;;;;;50.83;33.10;;;18.30;99.90;;;;;;12460160;28;20049;-43
2021/07/12 07:42:13;;;;;;;45.70;31.52;;;18.30;99.90;;;;;;12457451;28;20049;-41
2021/07/12 07:48:14;;;;;;;48.78;33.25;;;18.50;99.90;;;;;;12461260;28;20112;-40
2021/07/12 07:54:17;;;;;;;53.00;34.55;;;18.60;99.90;;;;;;12455072;28;20425;-41
2021/07/12 08:00:20;;;;;;;48.33;33.88;;;18.70;99.90;;;;;;12462163;28;20053;-41
2021/07/12 08:06:22;;;;;;;44.80;30.77;;;18.80;99.90;;;;;;12457372;28;20119;-42
2021/07/12 08:12:24;;;;;;;39.40;28.90;;;19.10;99.90;;;;;;12458487;28;20387;-41
2021/07/12 08:18:26;;;;;;;39.05;28.25;;;18.90;99.90;;;;;;12461011;28;20096;-41
2021/07/12 08:24:28;;;;;;;35.85;27.30;;;19.00;99.90;;;;;;12460683;28;20045;-44
2021/07/12 08:30:31;;;;;;;34.80;26.33;;;19.20;99.90;;;;;;12458379;28;20095;-43
2021/07/12 08:36:33;;;;;;;35.10;26.30;;;19.50;99.90;;;;;;12453394;28;20145;-43
2021/07/12 08:42:35;;;;;;;33.20;24.73;;;19.90;99.90;;;;;;12450451;28;20132;-44
2021/07/12 08:48:37;;;;;;;32.78;24.25;;;18.80;99.90;;;;;;12449891;28;20053;-44
2021/07/12 08:54:39;;;;;;;23.50;19.92;;;20.40;99.90;;;;;;12450373;28;20053;-45
2021/07/12 09:00:53;;;;;;;19.92;16.50;;;20.40;99.90;;;;;;12450383;28;20045;-45
2021/07/12 09:07:00;;;;;;;17.30;14.30;;;20.60;99.90;;;;;;12449827;28;20137;-43
2021/07/12 09:13:02;;;;;;;16.65;14.52;;;20.60;99.90;;;;;;12449566;28;20076;-43
2021/07/12 09:19:09;;;;;;;17.10;15.13;;;20.90;99.90;;;;;;12453367;28;20401;-45
2021/07/12 09:25:12;;;;;;;17.13;11.95;;;20.90;99.90;;;;;;12449696;28;20053;-45
2021/07/12 09:31:27;;;;;;;17.80;10.90;;;20.90;99.90;;;;;;12450069;28;20669;-41
2021/07/12 09:37:30;;;;;;;13.80;11.07;;;21.10;99.90;;;;;;12447693;28;20068;-41
2021/07/12 09:43:32;;;;;;;12.68;10.80;;;21.30;99.90;;;;;;12444810;28;20050;-42
2021/07/12 09:49:35;;;;;;;12.77;10.10;;;21.40;99.90;;;;;;12446766;28;20100;-43
2021/07/12 09:55:41;;;;;;;14.43;10.03;;;21.60;99.90;;;;;;12446097;28;20542;-41
2021/07/12 10:02:03;;;;;;;8.52;6.32;;;21.90;99.90;;;;;;12448332;28;20156;-41
2021/07/12 10:08:06;;;;;;;11.68;9.70;;;22.30;99.90;;;;;;12447956;28;20073;-40
2021/07/12 10:14:09;;;;;;;8.77;6.45;;;22.10;99.90;;;;;;12443349;28;20045;-41
2021/07/12 10:20:12;;;;;;;8.00;7.07;;;22.10;99.90;;;;;;12445749;28;20111;-41
2021/07/12 10:26:48;;;;;;;9.70;7.10;;;22.60;99.90;;;;;;12443077;28;20053;-42
2021/07/12 10:32:56;;;;;;;8.57;6.63;;;22.30;99.90;;;;;;12445836;28;20107;-45
2021/07/12 10:38:58;;;;;;;8.10;6.43;;;22.40;99.90;;;;;;12444377;28;20057;-40
2021/07/12 10:45:13;;;;;;;6.18;4.88;;;22.10;99.90;;;;;;12444977;28;20049;-42
2021/07/12 10:51:22;;;;;;;5.60;4.43;;;22.10;99.90;;;;;;12439588;28;20042;-41
2021/07/12 10:57:24;;;;;;;6.55;4.97;;;22.00;99.90;;;;;;12440437;28;20049;-41
2021/07/12 11:03:45;;;;;;;4.95;4.25;;;22.20;99.90;;;;;;12442886;28;20082;-41
2021/07/12 11:09:55;;;;;;;4.43;3.38;;;22.30;99.90;;;;;;12440464;28;20131;-41
2021/07/12 11:16:15;;;;;;;5.05;3.67;;;22.70;99.90;;;;;;12443021;28;20192;-42
2021/07/12 11:22:23;;;;;;;4.00;3.50;;;22.90;99.90;;;;;;12439308;28;20049;-41
2021/07/12 11:28:42;;;;;;;3.72;3.20;;;23.10;99.90;;;;;;12428538;28;20045;-42
2021/07/12 11:34:48;;;;;;;4.25;3.08;;;23.70;99.90;;;;;;12441187;28;20498;-41
2021/07/12 11:41:05;;;;;;;4.10;2.90;;;24.00;99.90;;;;;;12441277;28;20049;-41
2021/07/12 11:47:42;;;;;;;5.35;3.28;;;24.60;99.90;;;;;;12440515;28;20103;-42
2021/07/12 11:53:46;;;;;;;4.13;3.15;;;24.90;99.90;;;;;;12434881;28;20037;-42
2021/07/12 11:59:48;;;;;;;4.30;3.72;;;25.00;99.90;;;;;;12435550;28;20449;-46
2021/07/12 12:05:50;;;;;;;5.07;4.00;;;24.50;99.90;;;;;;12433398;28;20050;-42
2021/07/12 12:11:52;;;;;;;5.15;4.18;;;25.00;99.90;;;;;;12443555;28;20045;-41
2021/07/12 12:18:06;;;;;;;7.03;4.13;;;24.90;99.90;;;;;;12434602;28;20466;-42
2021/07/12 12:24:11;;;;;;;4.80;4.30;;;24.30;99.90;;;;;;12434657;28;20046;-42
2021/07/12 12:30:13;;;;;;;6.45;4.43;;;25.10;99.90;;;;;;12446037;28;20676;-41
2021/07/12 12:36:20;;;;;;;5.85;4.40;;;26.00;99.90;;;;;;12447005;28;20053;-41
2021/07/12 12:42:28;;;;;;;7.03;4.60;;;25.80;99.90;;;;;;12437309;28;20080;-41
2021/07/12 12:48:47;;;;;;;5.20;4.47;;;25.10;99.90;;;;;;12439693;28;20049;-41
2021/07/12 12:54:50;;;;;;;5.57;4.47;;;24.40;99.90;;;;;;12443489;28;20076;-40
2021/07/12 13:00:52;;;;;;;5.20;4.30;;;24.20;99.90;;;;;;12445169;28;20344;-41
2021/07/12 13:06:59;;;;;;;5.47;4.32;;;24.50;99.90;;;;;;12442212;28;20052;-42
2021/07/12 13:13:08;;;;;;;6.00;4.60;;;25.30;99.90;;;;;;12441711;28;20049;-40
2021/07/12 13:19:10;;;;;;;7.93;5.28;;;25.60;99.90;;;;;;12434013;28;20069;-41
2021/07/12 13:25:13;;;;;;;6.57;4.93;;;25.70;99.90;;;;;;12439611;28;20088;-43
2021/07/12 13:31:15;;;;;;;4.90;4.40;;;26.50;99.90;;;;;;12432137;28;20045;-41
2021/07/12 13:37:18;;;;;;;6.53;4.82;;;25.50;99.90;;;;;;12435466;28;20102;-41
2021/07/12 13:43:20;;;;;;;5.28;4.60;;;24.80;99.90;;;;;;12433167;28;20104;-41
2021/07/12 13:49:22;;;;;;;5.28;4.75;;;24.20;99.90;;;;;;12434111;28;20469;-43
2021/07/12 13:55:26;;;;;;;5.78;5.28;;;23.90;99.90;;;;;;12444165;28;20057;-42
2021/07/12 14:01:28;;;;;;;6.45;5.38;;;23.60;99.90;;;;;;12445776;28;20076;-41
2021/07/12 14:07:31;;;;;;;6.35;5.55;;;23.20;99.90;;;;;;12443205;28;20098;-41
2021/07/12 14:13:32;;;;;;;8.45;6.07;;;23.00;99.90;;;;;;12440732;28;20053;-44
2021/07/12 14:19:37;;;;;;;6.97;5.57;;;22.90;99.90;;;;;;12429325;28;20070;-41
2021/07/12 14:25:39;;;;;;;6.53;5.78;;;22.80;99.90;;;;;;12437192;28;20447;-41
2021/07/12 14:31:41;;;;;;;7.85;6.10;;;22.60;99.90;;;;;;12441979;28;20076;-42
2021/07/12 14:37:43;;;;;;;6.57;5.97;;;22.60;99.90;;;;;;12444995;28;20054;-40
2021/07/12 14:43:47;;;;;;;6.57;5.95;;;22.70;99.90;;;;;;12444146;28;20042;-42
2021/07/12 14:49:48;;;;;;;6.40;5.80;;;23.00;99.90;;;;;;12439507;28;20096;-40
2021/07/12 14:55:50;;;;;;;6.78;5.88;;;23.40;99.90;;;;;;12437635;28;20115;-41
2021/07/12 15:01:53;;;;;;;6.43;5.65;;;23.50;99.90;;;;;;12436564;28;20460;-41
2021/07/12 15:07:57;;;;;;;7.03;6.32;;;23.40;99.90;;;;;;12437481;28;20053;-40
2021/07/12 15:13:59;;;;;;;7.68;6.68;;;23.30;99.90;;;;;;12438560;28;20042;-41
2021/07/12 15:20:01;;;;;;;7.80;7.00;;;23.40;99.90;;;;;;12440949;28;20057;-41
2021/07/12 15:26:03;;;;;;;6.88;6.18;;;23.20;99.90;;;;;;12435417;28;20058;-41
2021/07/12 15:32:05;;;;;;;8.07;6.47;;;23.00;99.90;;;;;;12440072;28;20087;-42
2021/07/12 15:38:08;;;;;;;6.30;5.70;;;23.20;99.90;;;;;;12442461;28;20079;-41
2021/07/12 15:44:09;;;;;;;6.13;5.53;;;23.70;99.90;;;;;;12445873;28;20065;-41
2021/07/12 15:50:12;;;;;;;9.50;5.63;;;24.00;99.90;;;;;;12447715;28;20053;-40
2021/07/12 15:56:14;;;;;;;7.20;5.57;;;24.30;99.90;;;;;;12450223;28;20049;-41
2021/07/12 16:02:16;;;;;;;7.85;5.90;;;23.90;99.90;;;;;;12453609;28;20046;-40
2021/07/12 16:08:18;;;;;;;6.30;5.70;;;23.80;99.90;;;;;;12446574;28;20095;-42
2021/07/12 16:14:25;;;;;;;5.82;5.22;;;24.20;99.90;;;;;;12442801;28;20045;-41
2021/07/12 16:20:28;;;;;;;7.43;5.53;;;24.20;99.90;;;;;;12438351;28;20096;-41
2021/07/12 16:26:29;;;;;;;7.43;5.68;;;24.30;99.90;;;;;;12450425;28;20058;-46
2021/07/12 16:32:31;;;;;;;6.22;5.63;;;24.20;99.90;;;;;;12449997;28;20058;-40
2021/07/12 16:38:33;;;;;;;6.07;5.05;;;23.90;99.90;;;;;;12449490;28;20500;-41
2021/07/12 16:44:36;;;;;;;5.72;5.20;;;23.70;99.90;;;;;;12445058;28;20049;-41
2021/07/12 16:50:38;;;;;;;5.90;5.07;;;23.60;99.90;;;;;;12446908;28;20037;-41
2021/07/12 16:56:39;;;;;;;5.63;4.78;;;23.60;99.90;;;;;;12443386;28;20181;-40
2021/07/12 17:02:41;;;;;;;5.60;4.70;;;23.50;99.90;;;;;;12440123;28;20050;-41
2021/07/12 17:08:44;;;;;;;5.53;5.03;;;23.50;99.90;;;;;;12449178;28;20128;-41
2021/07/12 17:14:46;;;;;;;4.80;4.30;;;23.40;99.90;;;;;;12440155;28;20485;-41
2021/07/12 17:21:05;;;;;;;5.15;4.50;;;23.30;99.90;;;;;;12439745;28;20053;-40
2021/07/12 17:27:07;;;;;;;5.88;4.28;;;23.30;99.90;;;;;;12438597;28;20472;-41
2021/07/12 17:33:09;;;;;;;5.07;4.20;;;23.30;99.90;;;;;;12445608;28;20482;-41
2021/07/12 17:39:13;;;;;;;6.28;4.47;;;23.30;99.90;;;;;;12448243;28;20049;-40
2021/07/12 17:45:18;;;;;;;8.27;5.32;;;23.20;99.90;;;;;;12445438;28;20099;-40
2021/07/12 17:51:19;;;;;;;5.63;4.88;;;23.10;99.90;;;;;;12442762;28;20606;-43
2021/07/12 17:57:21;;;;;;;5.50;4.55;;;23.00;99.90;;;;;;12440625;28;20045;-40
2021/07/12 18:03:24;;;;;;;5.30;4.70;;;23.00;99.90;;;;;;12447731;28;20049;-40
2021/07/12 18:09:26;;;;;;;;;;;23.00;99.90;;;;;;12441999;28;20045;-41
2021/07/12 18:15:28;;;;;;;8.35;5.78;;;23.00;99.90;;;;;;12442251;28;19925;-41
2021/07/12 18:21:30;;;;;;;6.30;5.70;;;22.80;99.90;;;;;;12443595;28;20050;-42
2021/07/12 18:27:32;;;;;;;8.20;6.22;;;22.70;99.90;;;;;;12440165;28;20106;-40
2021/07/12 18:33:35;;;;;;;8.45;6.28;;;22.70;99.90;;;;;;12440947;28;20102;-40
2021/07/12 18:39:37;;;;;;;10.73;7.30;;;22.70;99.90;;;;;;12441706;28;20050;-42
2021/07/12 18:45:39;;;;;;;8.77;5.60;;;22.50;99.90;;;;;;12434123;28;20484;-41
2021/07/12 18:51:43;;;;;;;6.28;5.68;;;22.50;99.90;;;;;;12439102;28;20044;-42
2021/07/12 18:57:51;;;;;;;6.28;5.60;;;22.50;99.90;;;;;;12438435;28;20053;-40
2021/07/12 19:03:53;;;;;;;7.40;6.68;;;22.30;99.90;;;;;;12441736;28;20049;-42
2021/07/12 19:09:55;;;;;;;6.78;6.07;;;22.20;99.90;;;;;;12438671;28;20447;-41
2021/07/12 19:15:57;;;;;;;7.53;6.80;;;22.10;99.90;;;;;;12439509;28;20970;-42
2021/07/12 19:21:59;;;;;;;6.90;6.20;;;22.00;99.90;;;;;;12441627;28;20092;-41
2021/07/12 19:28:05;;;;;;;10.05;6.55;;;21.80;99.90;;;;;;12437429;28;20481;-41
2021/07/12 19:34:07;;;;;;;8.60;6.97;;;21.70;99.90;;;;;;12443312;28;20475;-41
2021/07/12 19:40:11;;;;;;;8.55;6.90;;;21.70;99.90;;;;;;12437313;28;20457;-40
2021/07/12 19:46:13;;;;;;;8.55;7.18;;;21.50;99.90;;;;;;12440858;28;20045;-45
2021/07/12 19:52:15;;;;;;;7.78;6.93;;;21.40;99.90;;;;;;12439559;28;20133;-41
2021/07/12 19:58:17;;;;;;;10.23;7.15;;;21.50;99.90;;;;;;12441009;28;20103;-41
2021/07/12 20:04:19;;;;;;;7.70;6.90;;;21.40;99.90;;;;;;12439236;28;20544;-40
2021/07/12 20:10:22;;;;;;;9.10;7.13;;;21.40;99.90;;;;;;12441267;28;20049;-43
2021/07/12 20:16:24;;;;;;;8.85;7.07;;;21.40;99.90;;;;;;12442698;28;20064;-40
2021/07/12 20:22:27;;;;;;;7.72;7.00;;;21.20;99.90;;;;;;12437423;28;20102;-41
2021/07/12 20:28:29;;;;;;;7.87;7.17;;;21.10;99.90;;;;;;12436397;28;20106;-40
2021/07/12 20:34:31;;;;;;;8.60;6.47;;;21.00;99.90;;;;;;12448970;28;20053;-42
2021/07/12 20:40:33;;;;;;;10.30;6.63;;;20.90;99.90;;;;;;12447638;28;20053;-41
2021/07/12 20:46:35;;;;;;;8.68;6.90;;;20.80;99.90;;;;;;12447073;28;20098;-42
2021/07/12 20:52:37;;;;;;;8.05;7.25;;;20.80;99.90;;;;;;12451047;28;20049;-41
2021/07/12 20:58:41;;;;;;;8.75;6.72;;;20.80;99.90;;;;;;12448568;28;20445;-42
2021/07/12 21:04:43;;;;;;;8.43;6.57;;;20.90;99.90;;;;;;12446669;28;20046;-40
2021/07/12 21:10:45;;;;;;;6.30;5.70;;;20.90;99.90;;;;;;12447409;28;20037;-42
2021/07/12 21:16:47;;;;;;;7.78;5.90;;;20.70;99.90;;;;;;12446380;28;20045;-40
2021/07/12 21:22:49;;;;;;;5.93;5.32;;;20.70;99.90;;;;;;12440636;28;20103;-41
2021/07/12 21:28:50;;;;;;;7.40;4.75;;;20.60;99.90;;;;;;12443260;28;20107;-40
2021/07/12 21:34:52;;;;;;;7.85;5.40;;;20.60;99.90;;;;;;12448115;28;20045;-40
2021/07/12 21:40:54;;;;;;;6.60;5.32;;;20.60;99.90;;;;;;12443608;28;20065;-40
2021/07/12 21:46:56;;;;;;;6.13;4.90;;;20.50;99.90;;;;;;12443345;28;20123;-41
2021/07/12 21:52:58;;;;;;;6.75;5.13;;;20.40;99.90;;;;;;12446444;28;20390;-40
2021/07/12 21:59:00;;;;;;;5.85;5.20;;;20.40;99.90;;;;;;12440186;28;20053;-43
2021/07/12 22:05:03;;;;;;;7.20;5.38;;;20.20;99.90;;;;;;12442649;28;20453;-41
2021/07/12 22:11:05;;;;;;;7.68;4.88;;;20.40;99.90;;;;;;12437297;28;20042;-42
2021/07/12 22:17:09;;;;;;;9.77;5.28;;;20.40;99.90;;;;;;12445390;28;20050;-42
2021/07/12 22:23:13;;;;;;;6.05;5.05;;;20.50;99.90;;;;;;12444623;28;20056;-42
2021/07/12 22:29:21;;;;;;;8.45;4.93;;;20.50;99.90;;;;;;12439198;28;20046;-41
2021/07/12 22:35:23;;;;;;;7.03;4.90;;;20.50;99.90;;;;;;12441666;28;20054;-45
2021/07/12 22:41:25;;;;;;;9.73;5.20;;;20.50;99.90;;;;;;12443156;28;20104;-41
2021/07/12 22:47:27;;;;;;;8.27;4.88;;;20.50;99.90;;;;;;12438060;28;20065;-41
2021/07/12 22:53:30;;;;;;;7.85;4.88;;;20.40;99.90;;;;;;12434738;28;20054;-43
2021/07/12 22:59:32;;;;;;;5.83;5.10;;;20.40;99.90;;;;;;12440225;28;20049;-40
2021/07/12 23:05:35;;;;;;;7.80;4.88;;;20.30;99.90;;;;;;12439907;28;20484;-41
2021/07/12 23:11:36;;;;;;;6.25;4.90;;;20.30;99.90;;;;;;12440101;28;20045;-41
2021/07/12 23:17:38;;;;;;;7.93;5.13;;;20.40;99.90;;;;;;12437771;28;20128;-43
2021/07/12 23:23:40;;;;;;;7.30;5.47;;;20.20;99.90;;;;;;12435440;28;20105;-42
2021/07/12 23:29:42;;;;;;;11.85;5.30;;;20.00;99.90;;;;;;12445311;28;20103;-40
2021/07/12 23:35:45;;;;;;;7.70;5.10;;;20.10;99.90;;;;;;12434550;28;20127;-40
2021/07/12 23:41:50;;;;;;;10.25;5.00;;;20.00;99.90;;;;;;12437042;28;20303;-40
2021/07/12 23:47:55;;;;;;;7.03;4.78;;;19.90;99.90;;;;;;12440257;28;20088;-40
2021/07/12 23:53:56;;;;;;;8.38;4.90;;;19.90;99.90;;;;;;12433618;28;20046;-40
2021/07/12 23:59:58;;;;;;;8.63;4.78;;;19.80;99.90;;;;;;12437870;28;20061;-41
